Tiempo atmosférico en la estación meteorológica de Aguilar de la Frontera, Córdoba (305 m.)



Fecha
DESCASC
Temp. máxima en grados centígrados (hora)
DESCASC
Temp. mínima en grados centígrados (hora)
DESCASC
Temp. media en grados centígrados
DESCASC
Racha de viento máxima en m/sg (hora)
DESCASC
Velocidad máxima media en intervalos de 10 minutos(hora)
DESCASC
Precipitaciones diarias en mm
DESCASC
Precipitaciones de 00:00 a 06:00 en mm
DESCASC
Precipitaciones de 06:00 a 12:00 en mm
DESCASC
Precipitaciones de 12:00 a 18:00 en mm
DESCASC
Precipitaciones de 18:00 a 24:00 en mm
DESCASC
10-07-2020 37.8 (19:20) 18 (05:30) 27.9 6.11 (09:00) 3.89 (09:00) 0 0 0 0 0
09-07-2020 34.1 (18:20) 16.5 (07:10) 25.3 6.94 (19:40) 4.72 (19:00) 0 0 0 0 0
08-07-2020 37.9 (16:10) 24.4 (23:59) 31.2 10.83 (21:10) 6.94 (21:10) 0 0 0 0 0
07-07-2020 41.3 (17:40) 23.6 (07:20) 32.4 6.39 (04:50) 5 (05:20) 0 0 0 0 0
06-07-2020 40.5 (18:00) 21.4 (00:00) 30.9 7.78 (23:20) 5.56 (07:00) 0 0 0 0 0
05-07-2020 37.6 (16:30) 19.4 (00:00) 28.5 8.61 (22:30) 5 (22:30) 0 0 0 0 0
04-07-2020 37.2 (19:00) 18.5 (00:00) 27.9 9.17 (22:40) 5 (22:40) 0 0 0 0 0
03-07-2020 35.2 (18:10) 17.2 (06:50) 26.2 5.83 (15:00) 3.89 (15:50) 0 0 0 0 0
02-07-2020 35.4 (16:40) 18 (00:00) 26.7 8.89 (23:00) 5.56 (20:50) 0 0 0 0 0
01-07-2020 36.1 (18:00) 16.4 (00:00) 26.2 7.22 (21:00) 5 (20:50) 0 0 0 0 0
30-06-2020 37.8 (17:20) 18.9 (00:00) 28.3 9.44 (21:00) 6.39 (21:20) 0 0 0 0 0
29-06-2020 39.3 (18:20) 21.8 (00:00) 30.5 6.67 (02:30) 5 (01:40) 0 0 0 0 0
28-06-2020 37.5 (18:30) 17.3 (00:00) 27.4 5.56 (23:10) 3.61 (23:00) 0 0 0 0 0
27-06-2020 34 (18:40) 14.3 (00:00) 24.2 6.39 (23:40) 4.17 (00:10) 0 0 0 0 0
26-06-2020 31.3 (18:40) 17.3 (00:00) 24.3 8.89 (15:40) 5.56 (15:40) 0 0 0 0 0
25-06-2020 33.5 (17:20) 17.8 (00:00) 25.6 10 (20:20) 6.67 (20:30) 0 0 0 0 0
24-06-2020 36.8 (17:10) 20.5 (00:00) 28.6 5.83 (06:30) 4.44 (06:30) 0 0 0 0 0
23-06-2020 38.7 (16:20) 17.8 (00:00) 28.3 8.33 (00:10) 5.28 (00:10) 0 0 0 0 0
22-06-2020 37.9 (18:10) 20.9 (00:00) 29.4 8.61 (23:59) 5.83 (23:59) 0 0 0 0 0
21-06-2020 37.1 (20:10) 16.6 (00:00) 26.8 4.72 (13:30) 3.33 (07:20) 0 0 0 0 0
20-06-2020 34.9 (17:50) 14.8 (00:00) 24.9 5.83 (21:00) 4.17 (21:00) 0 0 0 0 0
19-06-2020 31.2 (18:30) 12.8 (00:00) 22 7.78 (17:10) 5 (20:20) 0 0 0 0 0
18-06-2020 31.1 (17:10) 13.8 (00:00) 22.5 11.11 (19:50) 6.39 (19:50) 0 0 0 0 0
17-06-2020 29.9 (17:30) 14.7 (00:00) 22.3 9.72 (16:50) 5.83 (17:10) 0 0 0 0 0
16-06-2020 29.3 (17:30) 14.3 (00:00) 21.8 11.94 (18:10) 7.5 (18:50) 0 0 0 0 0
15-06-2020 29.4 (18:10) 11.3 (00:00) 20.3 8.61 (23:10) 5.56 (16:50) 0 0 0 0 0
14-06-2020 28.3 (16:50) 12.3 (00:00) 20.3 10 (19:30) 6.11 (21:30) 0 0 0 0 0
13-06-2020 25.6 (18:30) 12.8 (00:00) 19.2 9.44 (00:30) 5.56 (00:10) 0 0 0 0 0
12-06-2020 23.5 (18:10) 14.4 (00:00) 18.9 11.94 (01:10) 6.94 (01:10) 0 0 0 0 0

Gráficas

Temp. máximas Temp. mínimas Temp. medias Precipitaciones Rachas de viento máximas Velocidades máximas media en intervalos de 10 minutos

Datos horarios

Fecha y hora oficial Temperatura (ºC) Velocidad del viento (km/h) Dirección del viento Racha (km/h) Dirección de racha Precipitación (mm) Presión (hPa) Tendencia (hPa) Humedad (%)
2020-07-11 23:00:00 26.4 16 Sudeste 36 Sur 0 -- -- 58
2020-07-11 22:00:00 26.8 25 Sudeste 47 Sur 0 -- -- 58
2020-07-11 21:00:00 29 19 Sur 39 Sur 0 -- -- 50
2020-07-11 20:00:00 29.9 18 Sudeste 33 Sur 0 -- -- 47
2020-07-11 19:00:00 32.2 19 Sur 36 Sur 0 -- -- 42
2020-07-11 18:00:00 33.4 20 Sur 37 Sur 0 -- -- 39
2020-07-11 17:00:00 35.2 18 Sur 28 Sur 0 -- -- 35
2020-07-11 16:00:00 36.2 12 Sur 21 Sudoeste 0 -- -- 31
2020-07-11 15:00:00 36.7 13 Sur 17 Sudoeste 0 -- -- 32
2020-07-11 14:00:00 37 9 Sur 13 Sur 0 -- -- 28
2020-07-11 13:00:00 36 11 Sur 14 Sur 0 -- -- 24
2020-07-11 12:00:00 34.2 8 Sudeste 19 Este 0 -- -- 30
2020-07-11 11:00:00 33 11 Sudeste 20 Sudeste 0 -- -- 33
2020-07-11 10:00:00 30.3 10 Sudeste 22 Sudeste 0 -- -- 37
2020-07-11 09:00:00 26.4 13 Sudeste 21 Sudeste 0 -- -- 45
2020-07-11 08:00:00 23.3 13 Sudeste 22 Sudeste 0 -- -- 53
2020-07-11 07:00:00 22.8 15 Sudeste 22 Sudeste 0 -- -- 54
2020-07-11 06:00:00 22.5 13 Sudeste 19 Sudeste 0 -- -- 54
2020-07-11 05:00:00 23.1 13 Sudeste 21 Sudeste 0 -- -- 52
2020-07-11 04:00:00 23.9 13 Sudeste 20 Sudeste 0 -- -- 50
2020-07-11 03:00:00 24.7 15 Sudeste 24 Sudeste 0 -- -- 46
2020-07-11 02:00:00 25.1 16 Sudeste 21 Sudeste 0 -- -- 44
2020-07-11 01:00:00 25.8 10 Sudeste 16 Sudeste 0 -- -- 44
2020-07-11 00:00:00 27.4 6 Sudoeste 14 Sudoeste 0 -- -- 41
2020-07-10 23:00:00 28.2 8 Sudoeste 18 Sudoeste 0 -- -- 36
2020-07-10 22:00:00 31.1 0 Calma 9 Oeste 0 -- -- 28
2020-07-10 21:00:00 35.1 6 Oeste 12 Oeste 0 -- -- 24
2020-07-10 20:00:00 36.9 5 Oeste 9 Sudoeste 0 -- -- 21
2020-07-10 19:00:00 37.4 5 Oeste 9 Sudoeste 0 -- -- 21
2020-07-10 18:00:00 37.2 5 Oeste 11 Norte 0 -- -- 21
2020-07-10 17:00:00 36.2 9 Noroeste 14 Oeste 0 -- -- 24
2020-07-10 16:00:00 35.2 10 Oeste 17 Oeste 0 -- -- 26
2020-07-10 15:00:00 34 9 Oeste 17 Oeste 0 -- -- 30
2020-07-10 14:00:00 32.8 12 Oeste 18 Oeste 0 -- -- 35
2020-07-10 13:00:00 31.1 7 Oeste 15 Oeste 0 -- -- 37
2020-07-10 12:00:00 29.2 8 Noroeste 12 Noroeste 0 -- -- 42
2020-07-10 11:00:00 27.4 8 Oeste 13 Oeste 0 -- -- 46
2020-07-10 10:00:00 26.9 6 Sur 18 Sudeste 0 -- -- 46
2020-07-10 09:00:00 23.6 14 Sudeste 22 Sudeste 0 -- -- 57
2020-07-10 08:00:00 19.5 2 Nordeste 7 Este 0 -- -- 72
2020-07-10 07:00:00 18.9 0 Calma 13 Sudeste 0 -- -- 73
2020-07-10 06:00:00 19.1 4 Sur 16 Sudeste 0 -- -- 75
2020-07-10 05:00:00 18.2 3 Este 6 Noroeste 0 -- -- 78
2020-07-10 04:00:00 19.1 5 Sur 12 Sudeste 0 -- -- 78
2020-07-10 03:00:00 19.7 10 Sudeste 12 Sudeste 0 -- -- 70
2020-07-10 02:00:00 21.2 7 Sudeste 11 Sudeste 0 -- -- 66
2020-07-10 01:00:00 22.6 6 Sudoeste 16 Oeste 0 -- -- 62
2020-07-10 00:00:00 23.8 7 Oeste 20 Sudoeste 0 -- -- 59
2020-07-09 23:00:00 25.5 8 Sudoeste 15 Oeste 0 -- -- 46
2020-07-09 22:00:00 27.8 10 Sudoeste 22 Sudoeste 0 -- -- 38
2020-07-09 21:00:00 31.5 14 Oeste 24 Oeste 0 -- -- 26
2020-07-09 20:00:00 33.3 15 Oeste 25 Oeste 0 -- -- 24
2020-07-09 19:00:00 33.6 17 Oeste 23 Oeste 0 -- -- 24
2020-07-09 18:00:00 33.8 15 Oeste 22 Sudoeste 0 -- -- 26
2020-07-09 17:00:00 33.5 13 Oeste 22 Oeste 0 -- -- 26
2020-07-09 16:00:00 32.4 11 Oeste 23 Oeste 0 -- -- 32
2020-07-09 15:00:00 31.4 8 Oeste 19 Oeste 0 -- -- 38
2020-07-09 14:00:00 30 10 Oeste 19 Oeste 0 -- -- 43
2020-07-09 13:00:00 27.8 8 Oeste 15 Noroeste 0 -- -- 49
2020-07-09 12:00:00 25.5 6 Oeste 13 Oeste 0 -- -- 58
2020-07-09 11:00:00 23.7 8 Noroeste 15 Oeste 0 -- -- 63
2020-07-09 10:00:00 21.6 8 Oeste 17 Oeste 0 -- -- 70
2020-07-09 09:00:00 19.8 10 Oeste 14 Oeste 0 -- -- 75
2020-07-09 08:00:00 18.7 0 Calma 5 Nordeste 0 -- -- 75
2020-07-09 07:00:00 16.7 3 Nordeste 8 Noroeste 0 -- -- 72
2020-07-09 06:00:00 16.8 3 Este 6 Este 0 -- -- 68
2020-07-09 05:00:00 17.8 0 Calma 5 Norte 0 -- -- 65
2020-07-09 04:00:00 18.5 0 Calma 10 Sudeste 0 -- -- 62
2020-07-09 03:00:00 19.7 6 Sudeste 10 Este 0 -- -- 60
2020-07-09 02:00:00 20.1 2 Noroeste 6 Sudeste 0 -- -- 56
2020-07-09 01:00:00 22.1 3 Este 6 Este 0 -- -- 52
2020-07-09 00:00:00 24.4 0 Calma 11 Sudoeste 0 -- -- 45
2020-07-08 23:00:00 25.9 7 Sudoeste 29 Sudoeste 0 -- -- 37
2020-07-08 22:00:00 28 15 Oeste 39 Sudoeste 0 -- -- 32
2020-07-08 21:00:00 31.4 22 Oeste 37 Oeste 0 -- -- 31
2020-07-08 20:00:00 34.4 19 Sudoeste 33 Sudoeste 0 -- -- 28
2020-07-08 19:00:00 36.7 9 Sur 16 Sur 0 -- -- 19
2020-07-08 18:00:00 35.6 15 Sur 24 Sur 0 -- -- 21
2020-07-08 17:00:00 37.6 7 Sur 18 Sur 0 -- -- 20
2020-07-08 16:00:00 37 12 Sur 31 Sur 0 -- -- 20
2020-07-08 15:00:00 36.8 12 Sur 24 Sudoeste 0 -- -- 21
2020-07-08 14:00:00 35.7 15 Sudoeste 25 Sudoeste 0 -- -- 22
2020-07-08 13:00:00 35.5 14 Sudoeste 27 Sur 0 -- -- 22
2020-07-08 12:00:00 34.2 15 Sudoeste 21 Sudoeste 0 -- -- 23
2020-07-08 11:00:00 33.4 15 Sudoeste 23 Sur 0 -- -- 25
2020-07-08 10:00:00 29.8 6 Sudoeste 13 Sudoeste 0 -- -- 36
2020-07-08 09:00:00 28 10 Sudeste 23 Este 0 -- -- 38
2020-07-08 08:00:00 26.2 8 Oeste 25 Sudeste 0 -- -- 43
2020-07-08 07:00:00 27.1 16 Este 26 Sudeste 0 -- -- 36
2020-07-08 06:00:00 25 8 Sudeste 15 Sudeste 0 -- -- 39
2020-07-08 05:00:00 25.4 4 Noroeste 18 Sudoeste 0 -- -- 43
2020-07-08 04:00:00 27.2 10 Este 22 Este 0 -- -- 35
2020-07-08 03:00:00 28.7 17 Sudeste 21 Sudeste 0 -- -- 32
2020-07-08 02:00:00 28.9 6 Sudeste 21 Noroeste 0 -- -- 30
2020-07-08 01:00:00 31 17 Sudeste 21 Este 0 -- -- 25
2020-07-08 00:00:00 29.7 4 Este 8 Sudeste 0 -- -- 28
2020-07-07 23:00:00 30.6 5 Sudoeste 7 Sudoeste 0 -- -- 28
2020-07-07 22:00:00 33.7 2 Norte 9 Sudoeste 0 -- -- 27
2020-07-07 21:00:00 37.1 6 Oeste 9 Oeste 0 -- -- 23
2020-07-07 20:00:00 39.3 6 Oeste 7 Oeste 0 -- -- 20
2020-07-07 19:00:00 40.8 4 Oeste 5 Oeste 0 -- -- 19
2020-07-07 18:00:00 41.1 3 Oeste 5 Oeste 0 -- -- 18
2020-07-07 17:00:00 40.6 2 Oeste 6 Oeste 0 -- -- 18
2020-07-07 16:00:00 40.4 3 Oeste 6 Sudoeste 0 -- -- 20
2020-07-07 15:00:00 40 4 Oeste 6 Oeste 0 -- -- 19
2020-07-07 14:00:00 38.4 5 Sudoeste 8 Noroeste 0 -- -- 20
2020-07-07 13:00:00 37.2 6 Oeste 11 Sudoeste 0 -- -- 24
2020-07-07 12:00:00 35.1 8 Sudoeste 14 Sudoeste 0 -- -- 27
2020-07-07 11:00:00 33.3 9 Sudeste 17 Sudeste 0 -- -- 32
2020-07-07 10:00:00 29.9 11 Este 18 Este 0 -- -- 38
2020-07-07 09:00:00 26.6 9 Sudeste 16 Sudeste 0 -- -- 43
2020-07-07 08:00:00 24.5 15 Sudeste 21 Sudeste 0 -- -- 46
2020-07-07 07:00:00 23.7 16 Sudeste 21 Sudeste 0 -- -- 45
2020-07-07 06:00:00 24.1 18 Sudeste 23 Sudeste 0 -- -- 44
2020-07-07 05:00:00 24.4 17 Sudeste 23 Sudeste 0 -- -- 42
2020-07-07 04:00:00 24.7 16 Sudeste 21 Sudeste 0 -- -- 43
2020-07-07 03:00:00 26.1 12 Sudeste 16 Sudeste 0 -- -- 41
2020-07-07 02:00:00 26.1 5 Sur 8 Sur 0 -- -- 43
2020-07-07 01:00:00 28.7 8 Sur 18 Sudoeste 0 -- -- 37
2020-07-07 00:00:00 30 14 Sudoeste 28 Sudoeste 0 -- -- 34
2020-07-06 23:00:00 31.4 15 Sudoeste 27 Sudoeste 0 -- -- 34
2020-07-06 22:00:00 33.9 0 Calma 7 Sudoeste 0 -- -- 27
2020-07-06 21:00:00 37.9 7 Sudoeste 9 Oeste 0 -- -- 22
2020-07-06 20:00:00 39.7 4 Oeste 6 Sudoeste 0 -- -- 20
2020-07-06 19:00:00 39.8 3 Este 5 Sudeste 0 -- -- 18
2020-07-06 18:00:00 40.5 3 Sur 5 Oeste 0 -- -- 17
2020-07-06 17:00:00 39.9 3 Oeste 6 Noroeste 0 -- -- 20
2020-07-06 16:00:00 39.2 5 Noroeste 8 Noroeste 0 -- -- 22
2020-07-06 15:00:00 38 5 Oeste 9 Noroeste 0 -- -- 22
2020-07-06 14:00:00 35.9 4 Nordeste 10 Norte 0 -- -- 26
2020-07-06 13:00:00 34.4 6 Noroeste 12 Oeste 0 -- -- 25
2020-07-06 12:00:00 32.7 7 Noroeste 12 Sur 0 -- -- 26
2020-07-06 11:00:00 30.9 6 Sur 13 Sudeste 0 -- -- 27
2020-07-06 10:00:00 29 7 Sudeste 14 Sudeste 0 -- -- 32
2020-07-06 09:00:00 26.6 3 Nordeste 16 Sudeste 0 -- -- 41
2020-07-06 08:00:00 22.8 13 Sudeste 24 Sudeste 0 -- -- 44
2020-07-06 07:00:00 21.6 20 Sudeste 26 Sudeste 0 -- -- 46
2020-07-06 06:00:00 22.6 17 Sudeste 26 Sudeste 0 -- -- 46
2020-07-06 05:00:00 22.9 18 Sudeste 27 Sudeste 0 -- -- 45
2020-07-06 04:00:00 23.1 17 Sudeste 23 Sudeste 0 -- -- 43
2020-07-06 03:00:00 24.4 14 Sudeste 23 Sudeste 0 -- -- 39
2020-07-06 02:00:00 25.2 13 Sudeste 25 Sudeste 0 -- -- 38
2020-07-06 01:00:00 26.5 18 Sudeste 26 Sudeste 0 -- -- 33
2020-07-06 00:00:00 27.3 17 Sudeste 26 Sudeste 0 -- -- 30
2020-07-05 23:00:00 28.9 17 Sudeste 31 Sur 0 -- -- 27
2020-07-05 22:00:00 30.6 16 Sur 24 Sur 0 -- -- 25
2020-07-05 21:00:00 33.4 14 Sur 19 Sudeste 0 -- -- 22
2020-07-05 20:00:00 35.3 13 Sudoeste 16 Sur 0 -- -- 21
2020-07-05 19:00:00 36.6 10 Sur 13 Sudoeste 0 -- -- 22
2020-07-05 18:00:00 37.3 9 Sudoeste 13 Sur 0 -- -- 24
2020-07-05 17:00:00 37.4 9 Sudoeste 12 Sudoeste 0 -- -- 26
2020-07-05 16:00:00 37.4 9 Sudoeste 12 Oeste 0 -- -- 25
2020-07-05 15:00:00 36.9 9 Sudoeste 14 Sudoeste 0 -- -- 26
2020-07-05 14:00:00 36.2 8 Oeste 13 Sudeste 0 -- -- 25
2020-07-05 13:00:00 34.5 8 Sur 13 Sudeste 0 -- -- 27
2020-07-05 12:00:00 31.9 6 Noroeste 10 Oeste 0 -- -- 34
2020-07-05 11:00:00 30.3 4 Noroeste 10 Sudeste 0 -- -- 37
2020-07-05 10:00:00 28.7 5 Sudeste 10 Este 0 -- -- 38
2020-07-05 09:00:00 24.8 6 Sudeste 14 Este 0 -- -- 52
2020-07-05 08:00:00 21.6 8 Este 15 Sudeste 0 -- -- 60
2020-07-05 07:00:00 19.4 10 Sudeste 12 Sudeste 0 -- -- 70
2020-07-05 06:00:00 21.3 9 Sudeste 15 Sudeste 0 -- -- 63
2020-07-05 05:00:00 21.2 10 Sudeste 12 Este 0 -- -- 65
2020-07-05 04:00:00 22.2 5 Oeste 14 Sudeste 0 -- -- 65
2020-07-05 03:00:00 22.2 9 Sudeste 13 Sur 0 -- -- 63
2020-07-05 02:00:00 23.9 4 Sudoeste 12 Sudeste 0 -- -- 58
2020-07-05 01:00:00 25.5 8 Sudeste 28 Sudeste 0 -- -- 51
2020-07-05 00:00:00 26.2 16 Sudeste 26 Sudeste 0 -- -- 50
2020-07-04 23:00:00 27.6 14 Sudeste 33 Sudeste 0 -- -- 38
2020-07-04 22:00:00 29.5 14 Sur 26 Sur 0 -- -- 32
2020-07-04 21:00:00 32.9 14 Sur 20 Sur 0 -- -- 29
2020-07-04 20:00:00 35.2 13 Sudoeste 17 Sur 0 -- -- 28
2020-07-04 19:00:00 37.2 6 Sudoeste 12 Noroeste 0 -- -- 23
2020-07-04 18:00:00 36.7 9 Oeste 12 Oeste 0 -- -- 25
2020-07-04 17:00:00 36.9 9 Oeste 11 Oeste 0 -- -- 27
2020-07-04 16:00:00 35.4 7 Noroeste 13 Oeste 0 -- -- 28
2020-07-04 15:00:00 34.9 5 Noroeste 10 Noroeste 0 -- -- 27
2020-07-04 14:00:00 33.7 7 Noroeste 14 Oeste 0 -- -- 28
2020-07-04 13:00:00 32 6 Norte 11 Sudoeste 0 -- -- 33
2020-07-04 12:00:00 30.7 6 Noroeste 11 Noroeste 0 -- -- 37
2020-07-04 11:00:00 29.3 5 Noroeste 13 Este 0 -- -- 43
2020-07-04 10:00:00 27.4 6 Este 11 Este 0 -- -- 46
2020-07-04 09:00:00 24.1 7 Este 11 Este 0 -- -- 53
2020-07-04 08:00:00 20.8 5 Este 7 Nordeste 0 -- -- 64
2020-07-04 07:00:00 19.1 4 Este 11 Sudeste 0 -- -- 66
2020-07-04 06:00:00 20 3 Sudeste 15 Sudeste 0 -- -- 66
2020-07-04 05:00:00 20.3 8 Sudeste 15 Sudeste 0 -- -- 70
2020-07-04 04:00:00 19.2 0 Calma 14 Sudeste 0 -- -- 64
2020-07-04 03:00:00 20.5 8 Sudeste 12 Sudeste 0 -- -- 62
2020-07-04 02:00:00 20.7 7 Sur 12 Sudeste 0 -- -- 53
2020-07-04 01:00:00 22.4 2 Noroeste 12 Sudoeste 0 -- -- 43
2020-07-04 00:00:00 24.5 7 Sudoeste 12 Sudoeste 0 -- -- 35
2020-07-03 23:00:00 26.1 6 Oeste 11 Oeste 0 -- -- 31
2020-07-03 22:00:00 29 6 Sudoeste 14 Noroeste 0 -- -- 24
2020-07-03 21:00:00 32.8 11 Oeste 18 Oeste 0 -- -- 23
2020-07-03 20:00:00 34.4 10 Oeste 18 Oeste 0 -- -- 20
2020-07-03 19:00:00 34.6 13 Oeste 17 Oeste 0 -- -- 20
2020-07-03 18:00:00 34.8 12 Noroeste 18 Oeste 0 -- -- 20
2020-07-03 17:00:00 34.5 10 Sudoeste 18 Oeste 0 -- -- 20
2020-07-03 16:00:00 33.7 12 Oeste 21 Oeste 0 -- -- 21
2020-07-03 15:00:00 32.7 12 Sudoeste 21 Oeste 0 -- -- 24
2020-07-03 14:00:00 31.7 11 Oeste 19 Sudoeste 0 -- -- 22
2020-07-03 13:00:00 30.5 10 Oeste 18 Oeste 0 -- -- 29
2020-07-03 12:00:00 28.4 9 Oeste 15 Oeste 0 -- -- 35
2020-07-03 11:00:00 26.4 5 Oeste 12 Oeste 0 -- -- 40
2020-07-03 10:00:00 24.9 5 Sur 10 Sudeste 0 -- -- 41
2020-07-03 09:00:00 22.2 3 Sudoeste 8 Sur 0 -- -- 51
2020-07-03 08:00:00 20.3 3 Sudeste 7 Este 0 -- -- 61
2020-07-03 07:00:00 17.7 4 Sudoeste 6 Sur 0 -- -- 69
2020-07-03 06:00:00 17.8 2 Sudeste 10 Sur 0 -- -- 65
2020-07-03 05:00:00 18.9 7 Sudeste 10 Sudeste 0 -- -- 64
2020-07-03 04:00:00 20.3 5 Sudeste 8 Este 0 -- -- 60
2020-07-03 03:00:00 21.7 2 Oeste 7 Sudoeste 0 -- -- 58
2020-07-03 02:00:00 22.6 6 Sudoeste 14 Noroeste 0 -- -- 54
2020-07-03 01:00:00 24.1 8 Oeste 21 Oeste 0 -- -- 52
2020-07-03 00:00:00 25.7 14 Sudoeste 31 Sudoeste 0 -- -- 45
2020-07-02 23:00:00 27.7 15 Sudoeste 32 Sudoeste 0 -- -- 38
2020-07-02 22:00:00 29.6 14 Sudoeste 30 Sudoeste 0 -- -- 34
2020-07-02 21:00:00 32.4 19 Oeste 28 Oeste 0 -- -- 30
2020-07-02 20:00:00 34.5 14 Oeste 19 Oeste 0 -- -- 25
2020-07-02 19:00:00 35.1 14 Oeste 24 Oeste 0 -- -- 21
2020-07-02 18:00:00 35.4 14 Sudoeste 22 Sudoeste 0 -- -- 21
2020-07-02 17:00:00 35 14 Oeste 22 Oeste 0 -- -- 24
2020-07-02 16:00:00 34.5 15 Oeste 26 Oeste 0 -- -- 26
2020-07-02 15:00:00 33.3 12 Noroeste 24 Oeste 0 -- -- 32
2020-07-02 14:00:00 32.9 12 Noroeste 21 Oeste 0 -- -- 31
2020-07-02 13:00:00 30.9 8 Oeste 14 Oeste 0 -- -- 34
2020-07-02 12:00:00 28.6 8 Oeste 15 Sudoeste 0 -- -- 44
2020-07-02 11:00:00 26.5 8 Oeste 12 Oeste 0 -- -- 48
2020-07-02 10:00:00 25.4 5 Oeste 12 Sur 0 -- -- 50
2020-07-02 09:00:00 24.8 3 Sur 8 Sudeste 0 -- -- 51
2020-07-02 08:00:00 20.1 0 Calma 10 Sudeste 0 -- -- 64
2020-07-02 07:00:00 18.1 8 Sudeste 11 Sudeste 0 -- -- 69
2020-07-02 06:00:00 18.7 2 Sudeste 6 Sudeste 0 -- -- 70
2020-07-02 05:00:00 19.5 3 Sudeste 7 Sudoeste 0 -- -- 69
2020-07-02 04:00:00 19.7 0 Calma 9 Oeste 0 -- -- 69
2020-07-02 03:00:00 20.2 3 Sur 9 Sudeste 0 -- -- 63
2020-07-02 02:00:00 22.4 0 Calma 9 Oeste 0 -- -- 55
2020-07-02 01:00:00 23.2 0 Calma 13 Sudoeste 0 -- -- 49
2020-07-02 00:00:00 24.9 10 Sudoeste 13 Sudoeste 0 -- -- 43
2020-07-01 23:00:00 26.3 5 Sur 13 Sudoeste 0 -- -- 39
2020-07-01 22:00:00 28.9 8 Sudoeste 21 Oeste 0 -- -- 33
2020-07-01 21:00:00 32.2 16 Oeste 26 Sudoeste 0 -- -- 29
2020-07-01 20:00:00 34.6 14 Oeste 18 Oeste 0 -- -- 24
2020-07-01 19:00:00 35.7 13 Oeste 14 Oeste 0 -- -- 21
2020-07-01 18:00:00 36.1 12 Oeste 17 Oeste 0 -- -- 22
2020-07-01 17:00:00 35.4 9 Sudoeste 17 Oeste 0 -- -- 22
2020-07-01 16:00:00 34.7 12 Oeste 19 Oeste 0 -- -- 26
2020-07-01 15:00:00 33.5 10 Oeste 21 Oeste 0 -- -- 30
2020-07-01 14:00:00 32.1 12 Oeste 21 Oeste 0 -- -- 36
2020-07-01 13:00:00 30.5 13 Oeste 21 Oeste 0 -- -- 40
2020-07-01 12:00:00 28.8 8 Oeste 12 Oeste 0 -- -- 43
2020-07-01 11:00:00 26.6 6 Oeste 10 Oeste 0 -- -- 51
2020-07-01 10:00:00 24 5 Oeste 9 Oeste 0 -- -- 63
2020-07-01 09:00:00 22.6 0 Calma 4 Nordeste 0 -- -- 66
2020-07-01 08:00:00 19.6 0 Calma 6 Este 0 -- -- 74
2020-07-01 07:00:00 16.4 5 Este 6 Este 0 -- -- 80
2020-07-01 06:00:00 17 2 Sudeste 6 Este 0 -- -- 81
2020-07-01 05:00:00 18.1 5 Sudeste 9 Sudeste 0 -- -- 79
2020-07-01 04:00:00 19.6 4 Sudoeste 13 Oeste 0 -- -- 75
2020-07-01 03:00:00 20.8 4 Sudoeste 18 Oeste 0 -- -- 67
2020-07-01 02:00:00 22 10 Oeste 23 Sudoeste 0 -- -- 64
2020-07-01 01:00:00 23.7 8 Sudoeste 15 Oeste 0 -- -- 60
2020-07-01 00:00:00 25.2 8 Sudoeste 22 Oeste 0 -- -- 56
2020-06-30 23:00:00 26.9 17 Oeste 30 Oeste 0 -- -- 54
2020-06-30 22:00:00 28.8 18 Oeste 34 Sudoeste 0 -- -- 51
2020-06-30 21:00:00 32.3 22 Oeste 34 Oeste 0 -- -- 39
2020-06-30 20:00:00 35.6 14 Oeste 17 Oeste 0 -- -- 29
2020-06-30 19:00:00 37.1 9 Oeste 17 Oeste 0 -- -- 25
2020-06-30 18:00:00 37.6 9 Oeste 11 Oeste 0 -- -- 24
2020-06-30 17:00:00 37.3 9 Oeste 12 Oeste 0 -- -- 22
2020-06-30 16:00:00 37.3 11 Oeste 13 Sudoeste 0 -- -- 22
2020-06-30 15:00:00 36.2 12 Oeste 16 Oeste 0 -- -- 23
2020-06-30 14:00:00 35.7 6 Sudoeste 16 Oeste 0 -- -- 24
2020-06-30 13:00:00 33.7 8 Sur 17 Sur 0 -- -- 25
2020-06-30 12:00:00 31.8 6 Noroeste 12 Oeste 0 -- -- 28
2020-06-30 11:00:00 30.1 5 Noroeste 10 Este 0 -- -- 30
2020-06-30 10:00:00 28.4 7 Este 12 Sudeste 0 -- -- 37
2020-06-30 09:00:00 24.6 8 Sudeste 12 Sudeste 0 -- -- 43
2020-06-30 08:00:00 21.1 5 Este 13 Sudeste 0 -- -- 48
2020-06-30 07:00:00 19.2 4 Sudeste 12 Sudeste 0 -- -- 50
2020-06-30 06:00:00 18.9 2 Sudeste 10 Este 0 -- -- 52
2020-06-30 05:00:00 20.6 9 Sudeste 12 Sudeste 0 -- -- 47
2020-06-30 04:00:00 22 8 Sudoeste 14 Sudeste 0 -- -- 45
2020-06-30 03:00:00 22.8 5 Nordeste 13 Sudeste 0 -- -- 42
2020-06-30 02:00:00 25 8 Sur 22 Sudeste 0 -- -- 35
2020-06-30 01:00:00 26.9 15 Sudeste 24 Sur 0 -- -- 30
2020-06-30 00:00:00 28.3 13 Sur 23 Sudeste 0 -- -- 26
2020-06-29 23:00:00 29.9 15 Sudeste 23 Sudeste 0 -- -- 22
2020-06-29 22:00:00 31.4 13 Sudeste 19 Sudeste 0 -- -- 20
2020-06-29 21:00:00 35 11 Sudeste 15 Sur 0 -- -- 16
2020-06-29 20:00:00 36.9 9 Sur 11 Sur 0 -- -- 14
2020-06-29 19:00:00 38.7 6 Sudoeste 7 Sur 0 -- -- 16
2020-06-29 18:00:00 39.1 5 Sudoeste 8 Sudeste 0 -- -- 18
2020-06-29 17:00:00 38.8 6 Sudoeste 8 Sudoeste 0 -- -- 20
2020-06-29 16:00:00 38 6 Sudoeste 9 Oeste 0 -- -- 22
2020-06-29 15:00:00 37.1 6 Noroeste 10 Oeste 0 -- -- 27
2020-06-29 14:00:00 35.3 6 Noroeste 10 Oeste 0 -- -- 29
2020-06-29 13:00:00 33.9 6 Oeste 12 Oeste 0 -- -- 31
2020-06-29 12:00:00 32.6 7 Oeste 15 Oeste 0 -- -- 34
2020-06-29 11:00:00 31.2 3 Sudeste 11 Sur 0 -- -- 35
2020-06-29 10:00:00 28.9 5 Sur 13 Sudeste 0 -- -- 37
2020-06-29 09:00:00 26.6 7 Sudeste 17 Este 0 -- -- 41
2020-06-29 08:00:00 24.1 9 Sudeste 17 Sudeste 0 -- -- 46
2020-06-29 07:00:00 21.9 11 Sudeste 17 Sudeste 0 -- -- 48
2020-06-29 06:00:00 22.2 12 Sudeste 17 Sudeste 0 -- -- 46
2020-06-29 05:00:00 22.9 12 Sudeste 21 Sudeste 0 -- -- 44
2020-06-29 04:00:00 23.6 14 Sudeste 20 Sudeste 0 -- -- 43
2020-06-29 03:00:00 24.6 13 Sudeste 24 Sudeste 0 -- -- 41
2020-06-29 02:00:00 25.6 16 Sudeste 23 Sudeste 0 -- -- 40
2020-06-29 01:00:00 25.4 6 Sudeste 14 Sur 0 -- -- 41
2020-06-29 00:00:00 28.1 7 Sur 20 Sudoeste 0 -- -- 38
2020-06-28 23:00:00 29.6 13 Sudeste 18 Sudeste 0 -- -- 33
2020-06-28 22:00:00 31.6 0 Calma 6 Oeste 0 -- -- 31
2020-06-28 21:00:00 35.8 6 Oeste 12 Oeste 0 -- -- 25
2020-06-28 20:00:00 36.6 9 Oeste 12 Oeste 0 -- -- 22
2020-06-28 19:00:00 37.1 6 Oeste 10 Sudoeste 0 -- -- 20
2020-06-28 18:00:00 37.3 9 Oeste 10 Oeste 0 -- -- 22
2020-06-28 17:00:00 36.5 5 Noroeste 12 Oeste 0 -- -- 25
2020-06-28 16:00:00 36 8 Oeste 14 Oeste 0 -- -- 25
2020-06-28 15:00:00 34.5 4 Este 13 Nordeste 0 -- -- 28
2020-06-28 14:00:00 34.2 6 Norte 14 Norte 0 -- -- 31
2020-06-28 13:00:00 32.3 5 Noroeste 13 Noroeste 0 -- -- 36
2020-06-28 12:00:00 30.5 7 Noroeste 11 Norte 0 -- -- 41
2020-06-28 11:00:00 28.6 5 Norte 10 Noroeste 0 -- -- 46
2020-06-28 10:00:00 26.2 4 Noroeste 7 Noroeste 0 -- -- 51
2020-06-28 09:00:00 24.7 3 Norte 5 Noroeste 0 -- -- 57
2020-06-28 08:00:00 21.1 4 Este 9 Sudeste 0 -- -- 66
2020-06-28 07:00:00 17.3 5 Sudeste 9 Sudeste 0 -- -- 77
2020-06-28 06:00:00 17.9 7 Este 8 Sudeste 0 -- -- 73
2020-06-28 05:00:00 18.5 3 Este 6 Este 0 -- -- 72
2020-06-28 04:00:00 19.6 0 Calma 9 Sudeste 0 -- -- 69
2020-06-28 03:00:00 20.4 6 Sudeste 9 Sudeste 0 -- -- 67
2020-06-28 02:00:00 22.1 0 Calma 8 Oeste 0 -- -- 62
2020-06-28 01:00:00 23.5 8 Sudoeste 17 Oeste 0 -- -- 58
2020-06-28 00:00:00 25 9 Oeste 23 Oeste 0 -- -- 55
2020-06-27 23:00:00 26.3 12 Oeste 16 Oeste 0 -- -- 47
2020-06-27 22:00:00 28.6 5 Sudoeste 12 Sudoeste 0 -- -- 33
2020-06-27 21:00:00 32.1 10 Oeste 15 Oeste 0 -- -- 30
2020-06-27 20:00:00 33.3 9 Oeste 15 Oeste 0 -- -- 27
2020-06-27 19:00:00 33.6 10 Noroeste 17 Oeste 0 -- -- 28
2020-06-27 18:00:00 33.6 10 Oeste 19 Oeste 0 -- -- 27
2020-06-27 17:00:00 32.6 10 Oeste 19 Sudoeste 0 -- -- 30
2020-06-27 16:00:00 31.9 8 Noroeste 18 Norte 0 -- -- 31
2020-06-27 15:00:00 31.1 9 Noroeste 22 Noroeste 0 -- -- 33
2020-06-27 14:00:00 29 12 Noroeste 22 Noroeste 0 -- -- 35
2020-06-27 13:00:00 27.7 5 Oeste 13 Oeste 0 -- -- 41
2020-06-27 12:00:00 25.8 7 Oeste 12 Noroeste 0 -- -- 48
2020-06-27 11:00:00 23.9 5 Noroeste 9 Noroeste 0 -- -- 53
2020-06-27 10:00:00 22 5 Noroeste 8 Oeste 0 -- -- 59
2020-06-27 09:00:00 20.5 3 Oeste 6 Oeste 0 -- -- 61
2020-06-27 08:00:00 17.5 0 Calma 7 Sudeste 0 -- -- 70
2020-06-27 07:00:00 14.6 5 Sudeste 8 Sudeste 0 -- -- 76
2020-06-27 06:00:00 15.1 4 Sudeste 8 Sudeste 0 -- -- 76
2020-06-27 05:00:00 15.6 0 Calma 9 Este 0 -- -- 75
2020-06-27 04:00:00 16.3 5 Sudeste 9 Sudeste 0 -- -- 75
2020-06-27 03:00:00 17.4 6 Sudeste 8 Sudeste 0 -- -- 72
2020-06-27 02:00:00 19.1 4 Sudoeste 15 Sudoeste 0 -- -- 68
2020-06-27 01:00:00 20.4 8 Sudoeste 22 Sudoeste 0 -- -- 61
2020-06-27 00:00:00 22.2 15 Oeste 24 Oeste 0 -- -- 54
2020-06-26 23:00:00 23.8 10 Sudoeste 27 Sudoeste 0 -- -- 50
2020-06-26 22:00:00 25.8 15 Sudoeste 24 Sudoeste 0 -- -- 45
2020-06-26 21:00:00 28.6 16 Sudoeste 28 Oeste 0 -- -- 35
2020-06-26 20:00:00 30.1 18 Oeste 28 Oeste 0 -- -- 29
2020-06-26 19:00:00 30.2 16 Oeste 28 Oeste 0 -- -- 32
2020-06-26 18:00:00 31 19 Oeste 31 Oeste 0 -- -- 35
2020-06-26 17:00:00 30.7 15 Oeste 28 Oeste 0 -- -- 41
2020-06-26 16:00:00 29.6 14 Oeste 32 Oeste 0 -- -- 45
2020-06-26 15:00:00 28.5 13 Oeste 27 Oeste 0 -- -- 48
2020-06-26 14:00:00 26.7 14 Oeste 29 Oeste 0 -- -- 54
2020-06-26 13:00:00 24.4 10 Oeste 21 Oeste 0 -- -- 63
2020-06-26 12:00:00 21.9 12 Oeste 18 Oeste 0 -- -- 72
2020-06-26 11:00:00 21.1 7 Oeste 15 Oeste 0 -- -- 75
2020-06-26 10:00:00 19.8 7 Oeste 13 Oeste 0 -- -- 81
2020-06-26 09:00:00 18.7 10 Oeste 15 Oeste 0 -- -- 87
2020-06-26 08:00:00 18.2 9 Oeste 14 Oeste 0 -- -- 88
2020-06-26 07:00:00 17.6 3 Sudoeste 7 Sudoeste 0 -- -- 88
2020-06-26 06:00:00 17.5 3 Oeste 7 Oeste 0 -- -- 87
2020-06-26 05:00:00 17.9 4 Oeste 12 Oeste 0 -- -- 86
2020-06-26 04:00:00 18.6 6 Oeste 11 Oeste 0 -- -- 85
2020-06-26 03:00:00 19.4 6 Oeste 17 Oeste 0 -- -- 82
2020-06-26 02:00:00 20.1 10 Sudoeste 19 Oeste 0 -- -- 79
2020-06-26 01:00:00 21.2 9 Sudoeste 24 Sudoeste 0 -- -- 74
2020-06-26 00:00:00 22.5 14 Sudoeste 27 Sudoeste 0 -- -- 69
2020-06-25 23:00:00 23.8 14 Sudoeste 28 Sudoeste 0 -- -- 66
2020-06-25 22:00:00 25.5 21 Oeste 34 Oeste 0 -- -- 61
2020-06-25 21:00:00 28.3 23 Oeste 36 Oeste 0 -- -- 52
2020-06-25 20:00:00 31.1 21 Oeste 30 Oeste 0 -- -- 44
2020-06-25 19:00:00 32.9 18 Oeste 25 Oeste 0 -- -- 38
2020-06-25 18:00:00 33.1 15 Oeste 25 Oeste 0 -- -- 35
2020-06-25 17:00:00 33.3 14 Oeste 26 Oeste 0 -- -- 34
2020-06-25 16:00:00 32.7 14 Oeste 24 Oeste 0 -- -- 35
2020-06-25 15:00:00 32.2 10 Oeste 21 Oeste 0 -- -- 35
2020-06-25 14:00:00 30.3 6 Oeste 18 Oeste 0 -- -- 38
2020-06-25 13:00:00 29 9 Oeste 21 Noroeste 0 -- -- 43
2020-06-25 12:00:00 27 6 Oeste 15 Oeste 0 -- -- 46
2020-06-25 11:00:00 25.4 9 Oeste 17 Oeste 0 -- -- 50
2020-06-25 10:00:00 24.1 8 Oeste 14 Noroeste 0 -- -- 54
2020-06-25 09:00:00 23.4 3 Sur 8 Sudeste 0 -- -- 55
2020-06-25 08:00:00 19.3 2 Este 10 Este 0 -- -- 61
2020-06-25 07:00:00 18.1 6 Sudeste 13 Sudeste 0 -- -- 62
2020-06-25 06:00:00 18.3 8 Sudeste 10 Sudeste 0 -- -- 60
2020-06-25 05:00:00 18.3 3 Este 4 Este 0 -- -- 60
2020-06-25 04:00:00 19.9 0 Calma 6 Sur 0 -- -- 63
2020-06-25 03:00:00 20.6 0 Calma 5 Sudeste 0 -- -- 53
2020-06-25 02:00:00 22.8 3 Sudoeste 10 Sudoeste 0 -- -- 45
2020-06-25 01:00:00 24.1 7 Sudoeste 17 Sur 0 -- -- 42
2020-06-25 00:00:00 26.1 9 Sur 21 Sudoeste 0 -- -- 34
2020-06-24 23:00:00 27.6 12 Sur 20 Sur 0 -- -- 29
2020-06-24 22:00:00 29.7 12 Sur 21 Sur 0 -- -- 25
2020-06-24 21:00:00 32.4 10 Sudoeste 20 Sur 0 -- -- 24
2020-06-24 20:00:00 34.6 12 Sudoeste 15 Sur 0 -- -- 25
2020-06-24 19:00:00 35.4 12 Sur 15 Sur 0 -- -- 24
2020-06-24 18:00:00 36.1 12 Sudoeste 14 Sur 0 -- -- 24
2020-06-24 17:00:00 36.7 8 Sudoeste 13 Oeste 0 -- -- 26
2020-06-24 16:00:00 36 10 Oeste 14 Sudoeste 0 -- -- 27
2020-06-24 15:00:00 35.3 9 Sudoeste 19 Oeste 0 -- -- 25
2020-06-24 14:00:00 34 7 Noroeste 15 Sudoeste 0 -- -- 28
2020-06-24 13:00:00 32.1 7 Noroeste 12 Noroeste 0 -- -- 34
2020-06-24 12:00:00 30.2 5 Noroeste 9 Oeste 0 -- -- 39
2020-06-24 11:00:00 29 4 Noroeste 8 Noroeste 0 -- -- 41
2020-06-24 10:00:00 27.6 4 Este 11 Este 0 -- -- 43
2020-06-24 09:00:00 24.8 7 Sudeste 11 Sudeste 0 -- -- 50
2020-06-24 08:00:00 21.5 8 Sudeste 18 Sudeste 0 -- -- 55
2020-06-24 07:00:00 20.5 8 Sudeste 21 Sudeste 0 -- -- 56
2020-06-24 06:00:00 21.1 14 Sudeste 19 Sudeste 0 -- -- 53
2020-06-24 05:00:00 21.5 8 Sudeste 15 Sudeste 0 -- -- 52
2020-06-24 04:00:00 21.8 11 Sudeste 14 Sudeste 0 -- -- 51
2020-06-24 03:00:00 21.1 5 Este 8 Sudeste 0 -- -- 53
2020-06-24 02:00:00 21.9 5 Este 9 Sur 0 -- -- 52
2020-06-24 01:00:00 23.4 2 Sudoeste 14 Sur 0 -- -- 48
2020-06-24 00:00:00 25.2 0 Calma 23 Sur 0 -- -- 43
2020-06-23 23:00:00 27.8 15 Sur 28 Sudeste 0 -- -- 36
2020-06-23 22:00:00 29.8 15 Sur 28 Sudeste 0 -- -- 30
2020-06-23 21:00:00 31.7 13 Sur 23 Sur 0 -- -- 27
2020-06-23 20:00:00 34.6 13 Sur 18 Sudoeste 0 -- -- 22
2020-06-23 19:00:00 35.6 12 Sur 19 Sur 0 -- -- 23
2020-06-23 18:00:00 37.1 9 Sur 21 Sur 0 -- -- 21
2020-06-23 17:00:00 34.5 16 Sur 21 Sur 0 -- -- 24
2020-06-23 16:00:00 38.4 5 Sur 10 Noroeste 0 -- -- 20
2020-06-23 15:00:00 36.9 7 Norte 10 Noroeste 0 -- -- 23
2020-06-23 14:00:00 35.9 8 Norte 13 Noroeste 0 -- -- 22
2020-06-23 13:00:00 35.1 9 Norte 13 Norte 0 -- -- 26
2020-06-23 12:00:00 32.1 6 Oeste 10 Oeste 0 -- -- 29
2020-06-23 11:00:00 29.7 6 Noroeste 8 Noroeste 0 -- -- 33
2020-06-23 10:00:00 28.3 3 Noroeste 6 Nordeste 0 -- -- 35
2020-06-23 09:00:00 26 2 Norte 5 Sudeste 0 -- -- 43
2020-06-23 08:00:00 20.3 0 Calma 7 Sudeste 0 -- -- 52
2020-06-23 07:00:00 18 6 Este 10 Este 0 -- -- 54
2020-06-23 06:00:00 18.8 4 Este 8 Sudeste 0 -- -- 51
2020-06-23 05:00:00 20.4 4 Este 15 Este 0 -- -- 52
2020-06-23 04:00:00 22.1 9 Sudeste 21 Sudeste 0 -- -- 46
2020-06-23 03:00:00 23.7 14 Sudeste 26 Sudeste 0 -- -- 42
2020-06-23 02:00:00 24.5 18 Sudeste 27 Sudeste 0 -- -- 39
2020-06-23 01:00:00 25.3 18 Sudeste 30 Sudeste 0 -- -- 37
2020-06-23 00:00:00 27.1 21 Sudeste 31 Sudeste 0 -- -- 31
2020-06-22 23:00:00 28.1 12 Sudeste 19 Sur 0 -- -- 28
2020-06-22 22:00:00 29.6 9 Sur 20 Sur 0 -- -- 26
2020-06-22 21:00:00 33.2 13 Sur 19 Sudoeste 0 -- -- 22
2020-06-22 20:00:00 35.4 12 Sur 15 Sur 0 -- -- 20
2020-06-22 19:00:00 36.8 10 Sur 12 Sudoeste 0 -- -- 18
2020-06-22 18:00:00 37.5 8 Sur 13 Sudoeste 0 -- -- 18
2020-06-22 17:00:00 37.4 9 Sudeste 15 Sur 0 -- -- 18
2020-06-22 16:00:00 37.4 12 Sur 24 Sudeste 0 -- -- 19
2020-06-22 15:00:00 37.4 12 Sudeste 20 Sudeste 0 -- -- 18
2020-06-22 14:00:00 37.3 11 Sur 18 Sur 0 -- -- 19
2020-06-22 13:00:00 36.2 8 Sudeste 15 Este 0 -- -- 20
2020-06-22 12:00:00 35.1 4 Este 13 Nordeste 0 -- -- 21
2020-06-22 11:00:00 33.1 8 Este 13 Sudeste 0 -- -- 24
2020-06-22 10:00:00 30.6 8 Sudeste 18 Sudeste 0 -- -- 27
2020-06-22 09:00:00 26.6 9 Sudeste 18 Sudeste 0 -- -- 35
2020-06-22 08:00:00 23.2 6 Sudeste 13 Sudeste 0 -- -- 41
2020-06-22 07:00:00 21.1 7 Sudeste 18 Sudeste 0 -- -- 40
2020-06-22 06:00:00 21.9 14 Sudeste 18 Sudeste 0 -- -- 39
2020-06-22 05:00:00 21.5 9 Sudeste 18 Este 0 -- -- 42
2020-06-22 04:00:00 22.3 13 Sudeste 17 Sudeste 0 -- -- 40
2020-06-22 03:00:00 22.5 10 Sudeste 18 Sudeste 0 -- -- 39
2020-06-22 02:00:00 21.8 9 Este 17 Sudeste 0 -- -- 39
2020-06-22 01:00:00 21.7 2 Sur 10 Este 0 -- -- 43
2020-06-22 00:00:00 23 7 Sudeste 9 Sudeste 0 -- -- 36
2020-06-21 23:00:00 25.7 5 Sudeste 9 Sudoeste 0 -- -- 32
2020-06-21 22:00:00 30.2 0 Calma 6 Oeste 0 -- -- 29
2020-06-21 21:00:00 35.1 4 Oeste 12 Oeste 0 -- -- 24
2020-06-21 20:00:00 36.4 5 Noroeste 11 Oeste 0 -- -- 17
2020-06-21 19:00:00 36.6 5 Oeste 9 Oeste 0 -- -- 19
2020-06-21 18:00:00 36.6 6 Norte 9 Nordeste 0 -- -- 18
2020-06-21 17:00:00 36.5 5 Oeste 10 Este 0 -- -- 20
2020-06-21 16:00:00 34.8 5 Norte 13 Norte 0 -- -- 21
2020-06-21 15:00:00 34.7 7 Noroeste 15 Noroeste 0 -- -- 20
2020-06-21 14:00:00 33.5 7 Norte 17 Noroeste 0 -- -- 25
2020-06-21 13:00:00 31.4 6 Norte 15 Norte 0 -- -- 30
2020-06-21 12:00:00 29.9 6 Norte 15 Noroeste 0 -- -- 33
2020-06-21 11:00:00 28.2 5 Norte 10 Norte 0 -- -- 33
2020-06-21 10:00:00 25.9 2 Norte 7 Noroeste 0 -- -- 38
2020-06-21 09:00:00 23 3 Noroeste 8 Sudeste 0 -- -- 51
2020-06-21 08:00:00 20.4 2 Norte 14 Este 0 -- -- 55
2020-06-21 07:00:00 16.6 0 Calma 9 Este 0 -- -- 61
2020-06-21 06:00:00 16.7 4 Este 10 Este 0 -- -- 57
2020-06-21 05:00:00 17.6 5 Sudeste 10 Sudeste 0 -- -- 54
2020-06-21 04:00:00 18.5 4 Este 13 Sudeste 0 -- -- 51
2020-06-21 03:00:00 19.3 6 Sudeste 9 Sudeste 0 -- -- 51
2020-06-21 02:00:00 20.8 5 Sudeste 8 Sudeste 0 -- -- 46
2020-06-21 01:00:00 22.6 2 Sudoeste 9 Sudoeste 0 -- -- 41
2020-06-21 00:00:00 23 6 Sudoeste 9 Oeste 0 -- -- 41
2020-06-20 23:00:00 24.2 4 Sur 5 Sudoeste 0 -- -- 38
2020-06-20 22:00:00 28.4 0 Calma 16 Oeste 0 -- -- 32
2020-06-20 21:00:00 31.8 15 Oeste 21 Oeste 0 -- -- 27
2020-06-20 20:00:00 33.9 10 Oeste 17 Oeste 0 -- -- 22
2020-06-20 19:00:00 34 11 Noroeste 18 Oeste 0 -- -- 23
2020-06-20 18:00:00 34.8 9 Oeste 17 Sudoeste 0 -- -- 24
2020-06-20 17:00:00 34.2 7 Noroeste 18 Oeste 0 -- -- 24
2020-06-20 16:00:00 33.7 9 Noroeste 20 Noroeste 0 -- -- 26
2020-06-20 15:00:00 32.8 10 Sudoeste 19 Sudoeste 0 -- -- 27
2020-06-20 14:00:00 31.7 7 Noroeste 13 Norte 0 -- -- 31
2020-06-20 13:00:00 29.8 6 Noroeste 9 Noroeste 0 -- -- 32
2020-06-20 12:00:00 28.3 4 Norte 10 Noroeste 0 -- -- 34
2020-06-20 11:00:00 26.5 5 Noroeste 12 Noroeste 0 -- -- 38
2020-06-20 10:00:00 24.6 4 Norte 7 Norte 0 -- -- 45
2020-06-20 09:00:00 22.5 2 Nordeste 4 Norte 0 -- -- 52
2020-06-20 08:00:00 18 0 Calma 5 Este 0 -- -- 64
2020-06-20 07:00:00 15.3 4 Sudeste 13 Sudeste 0 -- -- 71
2020-06-20 06:00:00 15.1 7 Sudeste 9 Sudeste 0 -- -- 71
2020-06-20 05:00:00 15.5 4 Este 7 Sudeste 0 -- -- 70
2020-06-20 04:00:00 16.3 4 Sudeste 11 Sudeste 0 -- -- 67
2020-06-20 03:00:00 16.9 3 Este 5 Este 0 -- -- 64
2020-06-20 02:00:00 17.8 2 Nordeste 9 Sudeste 0 -- -- 61
2020-06-20 01:00:00 20.1 2 Norte 11 Sudoeste 0 -- -- 56
2020-06-20 00:00:00 21.2 2 Sudoeste 11 Oeste 0 -- -- 51
2020-06-19 23:00:00 22.8 7 Sudoeste 14 Sudoeste 0 -- -- 46
2020-06-19 22:00:00 24.7 9 Oeste 23 Oeste 0 -- -- 41
2020-06-19 21:00:00 28.1 15 Oeste 25 Oeste 0 -- -- 34
2020-06-19 20:00:00 29.4 15 Oeste 24 Oeste 0 -- -- 33
2020-06-19 19:00:00 30.5 14 Oeste 24 Oeste 0 -- -- 32
2020-06-19 18:00:00 30.7 11 Oeste 28 Oeste 0 -- -- 32
2020-06-19 17:00:00 30.4 12 Oeste 26 Sudoeste 0 -- -- 33
2020-06-19 16:00:00 29.3 11 Noroeste 22 Oeste 0 -- -- 36
2020-06-19 15:00:00 28.5 10 Noroeste 24 Noroeste 0 -- -- 40
2020-06-19 14:00:00 26.9 11 Oeste 22 Oeste 0 -- -- 43
2020-06-19 13:00:00 25.3 8 Oeste 16 Oeste 0 -- -- 47
2020-06-19 12:00:00 23.2 5 Noroeste 15 Oeste 0 -- -- 54
2020-06-19 11:00:00 21.7 9 Oeste 19 Noroeste 0 -- -- 58
2020-06-19 10:00:00 20.3 11 Oeste 18 Oeste 0 -- -- 62
2020-06-19 09:00:00 19.3 8 Oeste 15 Sudoeste 0 -- -- 60
2020-06-19 08:00:00 17.3 0 Calma 10 Sudeste 0 -- -- 64
2020-06-19 07:00:00 13.5 9 Sudeste 11 Sudeste 0 -- -- 75
2020-06-19 06:00:00 12.8 7 Sudeste 10 Sudeste 0 -- -- 74
2020-06-19 05:00:00 13.9 3 Sudeste 9 Este 0 -- -- 72
2020-06-19 04:00:00 15 5 Sudeste 9 Sur 0 -- -- 67
2020-06-19 03:00:00 16 3 Sudeste 9 Noroeste 0 -- -- 69
2020-06-19 02:00:00 17 4 Noroeste 14 Oeste 0 -- -- 69
2020-06-19 01:00:00 18.2 8 Oeste 19 Oeste 0 -- -- 64
2020-06-19 00:00:00 19.6 10 Oeste 18 Sudoeste 0 -- -- 56
2020-06-18 23:00:00 21.5 11 Oeste 22 Sudoeste 0 -- -- 48
2020-06-18 22:00:00 23.8 17 Oeste 29 Oeste 0 -- -- 37
2020-06-18 21:00:00 26.8 20 Sudoeste 33 Sudoeste 0 -- -- 29
2020-06-18 20:00:00 28.6 22 Oeste 40 Oeste 0 -- -- 31
2020-06-18 19:00:00 30.1 17 Sudoeste 33 Oeste 0 -- -- 27
2020-06-18 18:00:00 30.8 17 Oeste 31 Oeste 0 -- -- 29
2020-06-18 17:00:00 31 12 Oeste 26 Noroeste 0 -- -- 29
2020-06-18 16:00:00 30.1 12 Oeste 25 Sudoeste 0 -- -- 29
2020-06-18 15:00:00 29 12 Oeste 24 Oeste 0 -- -- 32
2020-06-18 14:00:00 28.3 10 Oeste 21 Oeste 0 -- -- 33
2020-06-18 13:00:00 26.7 6 Oeste 15 Oeste 0 -- -- 37
2020-06-18 12:00:00 25 4 Sudoeste 16 Oeste 0 -- -- 45
2020-06-18 11:00:00 23.8 4 Noroeste 9 Noroeste 0 -- -- 49
2020-06-18 10:00:00 21.4 5 Oeste 9 Noroeste 0 -- -- 57
2020-06-18 09:00:00 19.4 5 Oeste 8 Sudoeste 0 -- -- 64
2020-06-18 08:00:00 17.3 3 Sudeste 8 Este 0 -- -- 70
2020-06-18 07:00:00 13.8 2 Este 8 Este 0 -- -- 78
2020-06-18 06:00:00 14.1 6 Este 9 Este 0 -- -- 75
2020-06-18 05:00:00 14.9 5 Este 11 Sudeste 0 -- -- 73
2020-06-18 04:00:00 16.2 10 Sudeste 13 Sudeste 0 -- -- 70
2020-06-18 03:00:00 17.4 4 Sudeste 6 Oeste 0 -- -- 66
2020-06-18 02:00:00 19.1 4 Oeste 21 Oeste 0 -- -- 62
2020-06-18 01:00:00 20.2 11 Oeste 21 Sudoeste 0 -- -- 59
2020-06-18 00:00:00 21.5 10 Sudoeste 28 Sudoeste 0 -- -- 54
2020-06-17 23:00:00 23.1 15 Sudoeste 24 Sudoeste 0 -- -- 50
2020-06-17 22:00:00 24.7 14 Sudoeste 26 Sudoeste 0 -- -- 43
2020-06-17 21:00:00 27.3 15 Oeste 28 Oeste 0 -- -- 35
2020-06-17 20:00:00 28.7 16 Oeste 35 Sudoeste 0 -- -- 33
2020-06-17 19:00:00 29.2 16 Oeste 34 Oeste 0 -- -- 31
2020-06-17 18:00:00 29.4 17 Oeste 31 Oeste 0 -- -- 31
2020-06-17 17:00:00 29.3 15 Oeste 35 Oeste 0 -- -- 32
2020-06-17 16:00:00 28.5 18 Oeste 30 Oeste 0 -- -- 35
2020-06-17 15:00:00 27.7 17 Oeste 27 Oeste 0 -- -- 37
2020-06-17 14:00:00 26.5 14 Oeste 31 Oeste 0 -- -- 43
2020-06-17 13:00:00 25.1 12 Sudoeste 22 Oeste 0 -- -- 46
2020-06-17 12:00:00 23.7 11 Oeste 19 Sudoeste 0 -- -- 53
2020-06-17 11:00:00 22 8 Sudoeste 14 Oeste 0 -- -- 58
2020-06-17 10:00:00 20.2 6 Oeste 14 Oeste 0 -- -- 65
2020-06-17 09:00:00 18.8 6 Oeste 13 Oeste 0 -- -- 73
2020-06-17 08:00:00 17 3 Sudoeste 6 Sur 0 -- -- 85
2020-06-17 07:00:00 14.8 3 Sudeste 6 Sudeste 0 -- -- 89
2020-06-17 06:00:00 15.4 3 Sudeste 8 Sudeste 0 -- -- 86
2020-06-17 05:00:00 16.2 3 Sudeste 6 Este 0 -- -- 83
2020-06-17 04:00:00 16.9 0 Calma 9 Sudoeste 0 -- -- 83
2020-06-17 03:00:00 17.5 6 Oeste 9 Oeste 0 -- -- 81
2020-06-17 02:00:00 18.8 2 Oeste 15 Sudoeste 0 -- -- 74
2020-06-17 01:00:00 19.7 5 Oeste 19 Sudoeste 0 -- -- 72
2020-06-17 00:00:00 20.1 8 Sudoeste 35 Sudoeste 0 -- -- 71
2020-06-16 23:00:00 21.3 16 Oeste 28 Sudoeste 0 -- -- 68
2020-06-16 22:00:00 23 17 Oeste 38 Oeste 0 -- -- 62
2020-06-16 21:00:00 25.3 24 Oeste 43 Sudoeste 0 -- -- 52
2020-06-16 20:00:00 26.1 23 Oeste 43 Oeste 0 -- -- 45
2020-06-16 19:00:00 27.5 23 Oeste 43 Oeste 0 -- -- 42
2020-06-16 18:00:00 28.6 25 Oeste 41 Oeste 0 -- -- 36
2020-06-16 17:00:00 28.9 22 Oeste 43 Oeste 0 -- -- 33
2020-06-16 16:00:00 28.7 18 Oeste 33 Oeste 0 -- -- 35
2020-06-16 15:00:00 27.8 14 Oeste 35 Oeste 0 -- -- 32
2020-06-16 14:00:00 26.8 16 Oeste 30 Oeste 0 -- -- 34
2020-06-16 13:00:00 25.3 16 Oeste 30 Oeste 0 -- -- 39
2020-06-16 12:00:00 23.9 10 Oeste 18 Oeste 0 -- -- 45
2020-06-16 11:00:00 21.8 6 Oeste 14 Oeste 0 -- -- 54
2020-06-16 10:00:00 20.3 7 Oeste 15 Oeste 0 -- -- 59
2020-06-16 09:00:00 18.8 7 Sudoeste 13 Sudoeste 0 -- -- 64
2020-06-16 08:00:00 17.2 5 Sudeste 10 Sudeste 0 -- -- 65
2020-06-16 07:00:00 14.6 5 Sudeste 8 Sudeste 0 -- -- 72
2020-06-16 06:00:00 16.2 2 Sur 6 Sudoeste 0 -- -- 65
2020-06-16 05:00:00 16.4 4 Sur 8 Sudoeste 0 -- -- 64
2020-06-16 04:00:00 15.2 2 Sudeste 4 Sur 0 -- -- 68
2020-06-16 03:00:00 15.9 0 Calma 6 Sur 0 -- -- 65
2020-06-16 02:00:00 16.3 0 Calma 12 Sudoeste 0 -- -- 64
2020-06-16 01:00:00 17.2 7 Sudoeste 32 Sudoeste 0 -- -- 61
2020-06-16 00:00:00 19.1 17 Oeste 31 Oeste 0 -- -- 55
2020-06-15 23:00:00 21.2 18 Oeste 30 Oeste 0 -- -- 49
2020-06-15 22:00:00 23.5 12 Sudoeste 23 Oeste 0 -- -- 41
2020-06-15 21:00:00 26.3 13 Sudoeste 24 Oeste 0 -- -- 36
2020-06-15 20:00:00 27.8 15 Sudoeste 28 Oeste 0 -- -- 30
2020-06-15 19:00:00 28.5 15 Oeste 30 Oeste 0 -- -- 32
2020-06-15 18:00:00 29.2 17 Oeste 30 Oeste 0 -- -- 31
2020-06-15 17:00:00 29.1 13 Oeste 30 Oeste 0 -- -- 31
2020-06-15 16:00:00 28 10 Sudoeste 27 Oeste 0 -- -- 33
2020-06-15 15:00:00 27.1 14 Noroeste 24 Oeste 0 -- -- 35
2020-06-15 14:00:00 26.4 8 Noroeste 18 Oeste 0 -- -- 39
2020-06-15 13:00:00 25.5 12 Oeste 17 Oeste 0 -- -- 40
2020-06-15 12:00:00 23.5 7 Noroeste 15 Norte 0 -- -- 47
2020-06-15 11:00:00 22.2 4 Norte 12 Noroeste 0 -- -- 53
2020-06-15 10:00:00 19.8 4 Noroeste 8 Noroeste 0 -- -- 61
2020-06-15 09:00:00 18.6 3 Oeste 9 Oeste 0 -- -- 63
2020-06-15 08:00:00 15.3 5 Este 9 Este 0 -- -- 70
2020-06-15 07:00:00 11.5 5 Sudeste 8 Sudeste 0 -- -- 81
2020-06-15 06:00:00 12.3 0 Calma 5 Sudeste 0 -- -- 77
2020-06-15 05:00:00 13.2 0 Calma 10 Sudeste 0 -- -- 76
2020-06-15 04:00:00 14.2 7 Sudeste 10 Sudeste 0 -- -- 71
2020-06-15 03:00:00 14.8 7 Sudeste 9 Sudeste 0 -- -- 72
2020-06-15 02:00:00 15.9 3 Sudoeste 17 Oeste 0 -- -- 68
2020-06-15 01:00:00 16.8 11 Oeste 23 Oeste 0 -- -- 68
2020-06-15 00:00:00 17.9 16 Oeste 28 Oeste 0 -- -- 62
2020-06-14 23:00:00 19.2 13 Oeste 28 Oeste 0 -- -- 55
2020-06-14 22:00:00 21 18 Oeste 33 Sudoeste 0 -- -- 48
2020-06-14 21:00:00 23.8 21 Sudoeste 35 Oeste 0 -- -- 43
2020-06-14 20:00:00 25.9 21 Oeste 36 Sudoeste 0 -- -- 39
2020-06-14 19:00:00 27.3 21 Oeste 33 Sudoeste 0 -- -- 34
2020-06-14 18:00:00 28.2 16 Oeste 30 Oeste 0 -- -- 30
2020-06-14 17:00:00 27.9 17 Oeste 29 Oeste 0 -- -- 31
2020-06-14 16:00:00 27.5 14 Oeste 30 Oeste 0 -- -- 28
2020-06-14 15:00:00 26.5 12 Oeste 23 Oeste 0 -- -- 34
2020-06-14 14:00:00 25.1 5 Oeste 22 Noroeste 0 -- -- 36
2020-06-14 13:00:00 24.4 11 Noroeste 19 Noroeste 0 -- -- 41
2020-06-14 12:00:00 22.6 6 Oeste 13 Oeste 0 -- -- 49
2020-06-14 11:00:00 20.3 6 Oeste 15 Oeste 0 -- -- 58
2020-06-14 10:00:00 18.8 9 Oeste 15 Oeste 0 -- -- 64
2020-06-14 09:00:00 17.6 6 Sudoeste 10 Sudoeste 0 -- -- 65
2020-06-14 08:00:00 15.7 0 Calma 4 Sudeste 0 -- -- 70
2020-06-14 07:00:00 12.5 2 Este 8 Sudeste 0 -- -- 75
2020-06-14 06:00:00 14.1 6 Sudeste 10 Sudeste 0 -- -- 70
2020-06-14 05:00:00 15 3 Sur 10 Sudeste 0 -- -- 66
2020-06-14 04:00:00 15.4 5 Sudeste 9 Sudoeste 0 -- -- 68
2020-06-14 03:00:00 15.9 4 Sudoeste 14 Sudoeste 0 -- -- 68
2020-06-14 02:00:00 16.5 10 Oeste 17 Oeste 0 -- -- 66
2020-06-14 01:00:00 17.2 7 Oeste 15 Sudoeste 0 -- -- 61
2020-06-14 00:00:00 18.1 10 Oeste 17 Oeste 0 -- -- 56
2020-06-13 23:00:00 17.8 5 Sudeste 14 Sudoeste 0 -- -- 56
2020-06-13 22:00:00 20.2 3 Oeste 18 Oeste 0 -- -- 43
2020-06-13 21:00:00 22.5 13 Oeste 24 Oeste 0 -- -- 37
2020-06-13 20:00:00 24.9 12 Oeste 26 Oeste 0 -- -- 33
2020-06-13 19:00:00 25.3 9 Oeste 24 Oeste 0 -- -- 35
2020-06-13 18:00:00 25.3 13 Oeste 29 Oeste 0 -- -- 34
2020-06-13 17:00:00 24.3 15 Oeste 26 Oeste 0 -- -- 38
2020-06-13 16:00:00 23.1 15 Oeste 24 Noroeste 0 -- -- 40
2020-06-13 15:00:00 24.1 10 Sudoeste 26 Oeste 0 -- -- 37
2020-06-13 14:00:00 22.4 13 Oeste 21 Sudoeste 0 -- -- 40
2020-06-13 13:00:00 21.6 6 Oeste 21 Oeste 0 -- -- 47
2020-06-13 12:00:00 20.3 6 Noroeste 15 Sudoeste 0 -- -- 54
2020-06-13 11:00:00 18.3 7 Sur 14 Sudoeste 0 -- -- 63
2020-06-13 10:00:00 16.9 5 Sudoeste 14 Oeste 0 -- -- 69
2020-06-13 09:00:00 15.5 8 Oeste 17 Sudoeste 0 -- -- 74
2020-06-13 08:00:00 13.9 5 Sudoeste 11 Sudoeste 0 -- -- 81
2020-06-13 07:00:00 13.1 4 Sur 10 Sur 0 -- -- 82
2020-06-13 06:00:00 13.7 5 Sur 10 Sur 0 -- -- 82
2020-06-13 05:00:00 13.7 5 Sur 11 Sur 0 -- -- 82
2020-06-13 04:00:00 14 4 Sur 16 Sudoeste 0 -- -- 80
2020-06-13 03:00:00 14.5 10 Sudoeste 20 Sudoeste 0 -- -- 78
2020-06-13 02:00:00 14.8 10 Sudoeste 29 Sudoeste 0 -- -- 76
2020-06-13 01:00:00 15.2 16 Sudoeste 34 Sudoeste 0 -- -- 75
2020-06-13 00:00:00 15.8 18 Sudoeste 37 Sudoeste 0 -- -- 70
2020-06-12 23:00:00 16.7 21 Oeste 37 Sudoeste 0 -- -- 64
2020-06-12 22:00:00 17.9 21 Sudoeste 42 Sudoeste 0 -- -- 55
2020-06-12 21:00:00 20.8 21 Sudoeste 37 Sudoeste 0 -- -- 46
2020-06-12 20:00:00 22.7 19 Sudoeste 36 Oeste 0 -- -- 38
2020-06-12 19:00:00 22 21 Sudoeste 41 Sudoeste 0 -- -- 38
2020-06-12 18:00:00 22.9 21 Sudoeste 43 Sudoeste 0 -- -- 41
2020-06-12 17:00:00 22.9 18 Oeste 38 Sudoeste 0 -- -- 42
2020-06-12 16:00:00 21.8 22 Oeste 39 Oeste 0 -- -- 42
2020-06-12 15:00:00 21.1 18 Sudoeste 31 Sudoeste 0 -- -- 42
2020-06-12 14:00:00 20.6 14 Sudoeste 30 Oeste 0 -- -- 49
2020-06-12 13:00:00 19 15 Sudoeste 28 Sur 0 -- -- 54
2020-06-12 12:00:00 17.1 12 Sudoeste 20 Oeste 0 -- -- 58
2020-06-12 11:00:00 15.8 13 Oeste 27 Noroeste 0 -- -- 62
2020-06-12 10:00:00 15.8 14 Oeste 22 Oeste 0 -- -- 73
2020-06-12 09:00:00 15.2 14 Oeste 28 Sudoeste 0 -- -- 79
2020-06-12 08:00:00 14.6 17 Sudoeste 30 Oeste 0 -- -- 84
2020-06-12 07:00:00 14.5 17 Sudoeste 31 Sudoeste 0 -- -- 88
2020-06-12 06:00:00 14.7 15 Sudoeste 28 Sudoeste 0 -- -- 85
2020-06-12 05:00:00 15.6 17 Sudoeste 36 Sudoeste 0 -- -- 89
2020-06-12 04:00:00 16.5 15 Sudoeste 29 Sudoeste 0 -- -- 87
2020-06-12 03:00:00 16.6 17 Sudoeste 34 Sudoeste 0 -- -- 86
2020-06-12 02:00:00 16.7 17 Sudoeste 43 Sudoeste 0 -- -- 85
2020-06-12 01:00:00 17.5 23 Sudoeste 39 Sudoeste 0 -- -- 78
2020-06-12 00:00:00 17.9 20 Sudoeste 37 Sudoeste 0 -- -- 74